sensor_id;sensor_type;location;lat;lon;timestamp;pressure;altitude;pressure_sealevel;temperature;humidity
40948;BME280;49382;-25.924;28.194;2023-04-06T00:00:45;85432.21;;;18.35;37.76
40948;BME280;49382;-25.924;28.194;2023-04-06T00:03:11;85429.98;;;18.12;38.17
40948;BME280;49382;-25.924;28.194;2023-04-06T00:05:36;85423.96;;;18.54;37.57
40948;BME280;49382;-25.924;28.194;2023-04-06T00:08:01;85421.21;;;18.55;37.68
40948;BME280;49382;-25.924;28.194;2023-04-06T00:10:26;85419.37;;;18.32;37.73
40948;BME280;49382;-25.924;28.194;2023-04-06T00:12:51;85416.67;;;18.84;37.41
40948;BME280;49382;-25.924;28.194;2023-04-06T00:15:16;85416.92;;;18.83;37.54
40948;BME280;49382;-25.924;28.194;2023-04-06T00:17:41;85415.29;;;19.14;37.07
40948;BME280;49382;-25.924;28.194;2023-04-06T00:20:07;85409.73;;;19.70;36.40
40948;BME280;49382;-25.924;28.194;2023-04-06T00:22:31;85413.49;;;18.26;38.14
40948;BME280;49382;-25.924;28.194;2023-04-06T00:24:56;85415.29;;;19.08;37.30
40948;BME280;49382;-25.924;28.194;2023-04-06T00:27:21;85411.04;;;19.45;36.86
40948;BME280;49382;-25.924;28.194;2023-04-06T00:29:46;85408.71;;;19.33;36.85
40948;BME280;49382;-25.924;28.194;2023-04-06T00:32:11;85413.45;;;18.96;37.12
40948;BME280;49382;-25.924;28.194;2023-04-06T00:34:36;85409.91;;;19.21;37.18
40948;BME280;49382;-25.924;28.194;2023-04-06T00:37:01;85404.02;;;19.25;36.92
40948;BME280;49382;-25.924;28.194;2023-04-06T00:39:26;85402.12;;;19.45;36.85
40948;BME280;49382;-25.924;28.194;2023-04-06T00:41:52;85406.27;;;18.77;37.66
40948;BME280;49382;-25.924;28.194;2023-04-06T00:44:17;85400.70;;;17.50;39.17
40948;BME280;49382;-25.924;28.194;2023-04-06T00:46:42;85396.96;;;19.38;36.98
40948;BME280;49382;-25.924;28.194;2023-04-06T00:49:07;85394.56;;;19.56;36.65
40948;BME280;49382;-25.924;28.194;2023-04-06T00:51:33;85389.89;;;19.40;37.17
40948;BME280;49382;-25.924;28.194;2023-04-06T00:53:58;85389.66;;;18.69;38.32
40948;BME280;49382;-25.924;28.194;2023-04-06T00:56:24;85382.09;;;19.35;37.23
40948;BME280;49382;-25.924;28.194;2023-04-06T00:58:48;85380.48;;;19.14;37.59
40948;BME280;49382;-25.924;28.194;2023-04-06T01:01:14;85383.63;;;18.72;38.24
40948;BME280;49382;-25.924;28.194;2023-04-06T01:03:39;85377.48;;;17.60;39.45
40948;BME280;49382;-25.924;28.194;2023-04-06T01:06:04;85381.63;;;18.48;38.63
40948;BME280;49382;-25.924;28.194;2023-04-06T01:08:29;85377.65;;;18.90;38.03
40948;BME280;49382;-25.924;28.194;2023-04-06T01:10:54;85378.97;;;17.62;39.74
40948;BME280;49382;-25.924;28.194;2023-04-06T01:13:19;85381.23;;;18.51;38.37
40948;BME280;49382;-25.924;28.194;2023-04-06T01:15:44;85381.09;;;18.12;38.91
40948;BME280;49382;-25.924;28.194;2023-04-06T01:18:09;85377.13;;;18.96;37.45
40948;BME280;49382;-25.924;28.194;2023-04-06T01:20:35;85382.45;;;18.46;37.62
40948;BME280;49382;-25.924;28.194;2023-04-06T01:23:00;85383.52;;;17.40;39.81
40948;BME280;49382;-25.924;28.194;2023-04-06T01:25:25;85386.23;;;18.07;39.33
40948;BME280;49382;-25.924;28.194;2023-04-06T01:27:50;85388.86;;;17.71;39.43
40948;BME280;49382;-25.924;28.194;2023-04-06T01:30:15;85388.71;;;18.65;38.83
40948;BME280;49382;-25.924;28.194;2023-04-06T01:32:40;85390.35;;;18.81;38.26
40948;BME280;49382;-25.924;28.194;2023-04-06T01:35:06;85386.98;;;17.50;38.76
40948;BME280;49382;-25.924;28.194;2023-04-06T01:37:30;85385.85;;;18.23;38.74
40948;BME280;49382;-25.924;28.194;2023-04-06T01:39:56;85383.41;;;17.86;39.06
40948;BME280;49382;-25.924;28.194;2023-04-06T01:42:21;85386.80;;;18.67;38.40
40948;BME280;49382;-25.924;28.194;2023-04-06T01:44:46;85388.06;;;18.14;39.02
40948;BME280;49382;-25.924;28.194;2023-04-06T01:47:11;85388.98;;;17.80;39.16
40948;BME280;49382;-25.924;28.194;2023-04-06T01:49:36;85390.64;;;18.65;38.38
40948;BME280;49382;-25.924;28.194;2023-04-06T01:52:01;85392.45;;;18.42;38.61
40948;BME280;49382;-25.924;28.194;2023-04-06T01:54:26;85391.96;;;18.60;38.40
40948;BME280;49382;-25.924;28.194;2023-04-06T01:56:52;85390.79;;;18.06;39.07
40948;BME280;49382;-25.924;28.194;2023-04-06T01:59:18;85390.19;;;18.69;37.91
40948;BME280;49382;-25.924;28.194;2023-04-06T02:01:43;85390.53;;;18.30;38.79
40948;BME280;49382;-25.924;28.194;2023-04-06T02:04:08;85388.23;;;18.03;38.87
40948;BME280;49382;-25.924;28.194;2023-04-06T02:06:33;85386.86;;;18.53;38.71
40948;BME280;49382;-25.924;28.194;2023-04-06T02:08:58;85386.63;;;18.10;39.05
40948;BME280;49382;-25.924;28.194;2023-04-06T02:11:24;85386.01;;;17.50;40.47
40948;BME280;49382;-25.924;28.194;2023-04-06T02:13:49;85384.80;;;17.15;39.47
40948;BME280;49382;-25.924;28.194;2023-04-06T02:16:14;85390.99;;;18.35;38.71
40948;BME280;49382;-25.924;28.194;2023-04-06T02:18:40;85386.33;;;18.26;39.31
40948;BME280;49382;-25.924;28.194;2023-04-06T02:21:05;85389.67;;;18.52;38.79
40948;BME280;49382;-25.924;28.194;2023-04-06T02:23:30;85383.69;;;18.28;38.95
40948;BME280;49382;-25.924;28.194;2023-04-06T02:25:56;85386.96;;;18.33;38.90
40948;BME280;49382;-25.924;28.194;2023-04-06T02:28:21;85386.38;;;18.01;38.96
40948;BME280;49382;-25.924;28.194;2023-04-06T02:30:46;85390.21;;;17.99;38.90
40948;BME280;49382;-25.924;28.194;2023-04-06T02:33:12;85390.26;;;18.40;38.37
40948;BME280;49382;-25.924;28.194;2023-04-06T02:35:37;85392.18;;;18.60;38.19
40948;BME280;49382;-25.924;28.194;2023-04-06T02:38:03;85393.36;;;18.34;39.05
40948;BME280;49382;-25.924;28.194;2023-04-06T02:40:28;85394.23;;;18.03;38.98
40948;BME280;49382;-25.924;28.194;2023-04-06T02:42:53;85389.98;;;18.43;39.27
40948;BME280;49382;-25.924;28.194;2023-04-06T02:45:18;85393.17;;;18.20;39.15
40948;BME280;49382;-25.924;28.194;2023-04-06T02:47:44;85390.60;;;17.86;39.55
40948;BME280;49382;-25.924;28.194;2023-04-06T02:50:09;85392.64;;;17.88;39.42
40948;BME280;49382;-25.924;28.194;2023-04-06T02:52:33;85394.94;;;18.48;38.94
40948;BME280;49382;-25.924;28.194;2023-04-06T02:54:58;85394.88;;;18.58;38.43
40948;BME280;49382;-25.924;28.194;2023-04-06T02:57:24;85398.06;;;18.41;38.64
40948;BME280;49382;-25.924;28.194;2023-04-06T02:59:49;85395.37;;;17.80;39.68
40948;BME280;49382;-25.924;28.194;2023-04-06T03:02:14;85401.12;;;18.48;39.00
40948;BME280;49382;-25.924;28.194;2023-04-06T03:04:39;85398.25;;;18.13;39.48
40948;BME280;49382;-25.924;28.194;2023-04-06T03:07:05;85400.74;;;18.39;39.38
40948;BME280;49382;-25.924;28.194;2023-04-06T03:09:30;85402.92;;;17.85;40.00
40948;BME280;49382;-25.924;28.194;2023-04-06T03:11:56;85405.77;;;18.40;39.28
40948;BME280;49382;-25.924;28.194;2023-04-06T03:14:21;85405.54;;;18.06;39.41
40948;BME280;49382;-25.924;28.194;2023-04-06T03:16:46;85408.76;;;18.66;39.20
40948;BME280;49382;-25.924;28.194;2023-04-06T03:19:11;85409.17;;;18.89;39.10
40948;BME280;49382;-25.924;28.194;2023-04-06T03:21:37;85407.77;;;18.27;39.60
40948;BME280;49382;-25.924;28.194;2023-04-06T03:24:03;85408.22;;;18.46;39.14
40948;BME280;49382;-25.924;28.194;2023-04-06T03:26:28;85409.21;;;17.58;40.39
40948;BME280;49382;-25.924;28.194;2023-04-06T03:28:54;85411.46;;;18.53;39.60
40948;BME280;49382;-25.924;28.194;2023-04-06T03:31:20;85411.66;;;18.36;39.93
40948;BME280;49382;-25.924;28.194;2023-04-06T03:33:45;85412.60;;;18.53;39.73
40948;BME280;49382;-25.924;28.194;2023-04-06T03:36:10;85413.92;;;18.14;39.40
40948;BME280;49382;-25.924;28.194;2023-04-06T03:38:36;85418.29;;;18.48;39.29
40948;BME280;49382;-25.924;28.194;2023-04-06T03:41:01;85417.55;;;18.73;39.14
40948;BME280;49382;-25.924;28.194;2023-04-06T03:43:26;85420.74;;;18.21;39.77
40948;BME280;49382;-25.924;28.194;2023-04-06T03:45:51;85422.99;;;18.51;39.20
40948;BME280;49382;-25.924;28.194;2023-04-06T03:48:17;85423.98;;;18.42;39.40
40948;BME280;49382;-25.924;28.194;2023-04-06T03:50:42;85425.22;;;18.65;39.02
40948;BME280;49382;-25.924;28.194;2023-04-06T03:53:08;85428.22;;;18.14;39.55
40948;BME280;49382;-25.924;28.194;2023-04-06T03:55:33;85431.99;;;18.20;39.30
40948;BME280;49382;-25.924;28.194;2023-04-06T03:57:59;85435.71;;;17.80;40.70
40948;BME280;49382;-25.924;28.194;2023-04-06T04:00:25;85435.72;;;18.35;39.24
40948;BME280;49382;-25.924;28.194;2023-04-06T04:02:50;85438.48;;;18.53;39.64
40948;BME280;49382;-25.924;28.194;2023-04-06T04:05:15;85434.19;;;17.91;40.28
40948;BME280;49382;-25.924;28.194;2023-04-06T04:07:41;85431.68;;;17.85;40.64
40948;BME280;49382;-25.924;28.194;2023-04-06T04:10:07;85434.58;;;18.00;39.79
40948;BME280;49382;-25.924;28.194;2023-04-06T04:12:32;85432.43;;;18.24;40.13
40948;BME280;49382;-25.924;28.194;2023-04-06T04:14:57;85434.75;;;18.31;39.77
40948;BME280;49382;-25.924;28.194;2023-04-06T04:17:23;85435.90;;;18.51;39.82
40948;BME280;49382;-25.924;28.194;2023-04-06T04:19:48;85438.65;;;18.41;39.96
40948;BME280;49382;-25.924;28.194;2023-04-06T04:22:13;85440.68;;;18.55;39.38
40948;BME280;49382;-25.924;28.194;2023-04-06T04:24:38;85436.00;;;18.00;39.96
40948;BME280;49382;-25.924;28.194;2023-04-06T04:27:03;85438.02;;;17.32;41.01
40948;BME280;49382;-25.924;28.194;2023-04-06T04:29:28;85437.48;;;18.32;39.50
40948;BME280;49382;-25.924;28.194;2023-04-06T04:31:54;85434.81;;;17.11;41.82
40948;BME280;49382;-25.924;28.194;2023-04-06T04:34:19;85436.91;;;18.38;39.61
40948;BME280;49382;-25.924;28.194;2023-04-06T04:36:45;85436.40;;;18.05;40.76
40948;BME280;49382;-25.924;28.194;2023-04-06T04:39:10;85438.31;;;18.11;40.13
40948;BME280;49382;-25.924;28.194;2023-04-06T04:41:36;85434.35;;;17.82;39.91
40948;BME280;49382;-25.924;28.194;2023-04-06T04:44:01;85435.11;;;18.66;39.15
40948;BME280;49382;-25.924;28.194;2023-04-06T04:46:27;85435.27;;;17.69;40.74
40948;BME280;49382;-25.924;28.194;2023-04-06T04:48:51;85434.11;;;18.20;40.17
40948;BME280;49382;-25.924;28.194;2023-04-06T04:51:17;85437.55;;;18.59;39.90
40948;BME280;49382;-25.924;28.194;2023-04-06T04:53:42;85439.41;;;17.94;40.77
40948;BME280;49382;-25.924;28.194;2023-04-06T04:56:08;85441.81;;;18.92;39.60
40948;BME280;49382;-25.924;28.194;2023-04-06T04:58:33;85442.60;;;19.13;39.43
40948;BME280;49382;-25.924;28.194;2023-04-06T05:00:58;85444.38;;;18.99;39.68
40948;BME280;49382;-25.924;28.194;2023-04-06T05:03:25;85443.78;;;18.40;40.42
40948;BME280;49382;-25.924;28.194;2023-04-06T05:05:50;85445.99;;;18.44;39.79
40948;BME280;49382;-25.924;28.194;2023-04-06T05:08:16;85449.09;;;18.35;40.61
40948;BME280;49382;-25.924;28.194;2023-04-06T05:10:40;85451.30;;;19.04;39.97
40948;BME280;49382;-25.924;28.194;2023-04-06T05:13:05;85453.73;;;18.20;41.73
40948;BME280;49382;-25.924;28.194;2023-04-06T05:15:31;85455.46;;;17.76;42.56
40948;BME280;49382;-25.924;28.194;2023-04-06T05:17:57;85459.52;;;18.72;40.21
40948;BME280;49382;-25.924;28.194;2023-04-06T05:20:23;85462.02;;;19.14;40.27
40948;BME280;49382;-25.924;28.194;2023-04-06T05:22:47;85460.18;;;18.36;41.57
40948;BME280;49382;-25.924;28.194;2023-04-06T05:25:14;85460.90;;;18.85;40.33
40948;BME280;49382;-25.924;28.194;2023-04-06T05:27:38;85462.87;;;19.00;40.50
40948;BME280;49382;-25.924;28.194;2023-04-06T05:30:05;85466.09;;;19.34;39.93
40948;BME280;49382;-25.924;28.194;2023-04-06T05:32:29;85461.31;;;19.95;39.37
40948;BME280;49382;-25.924;28.194;2023-04-06T05:34:54;85464.43;;;19.08;40.36
40948;BME280;49382;-25.924;28.194;2023-04-06T05:37:20;85461.03;;;20.02;39.34
40948;BME280;49382;-25.924;28.194;2023-04-06T05:39:45;85464.81;;;19.34;40.02
40948;BME280;49382;-25.924;28.194;2023-04-06T05:42:11;85467.63;;;19.16;39.93
40948;BME280;49382;-25.924;28.194;2023-04-06T05:44:38;85466.51;;;20.16;39.04
40948;BME280;49382;-25.924;28.194;2023-04-06T05:47:01;85469.90;;;19.15;40.61
40948;BME280;49382;-25.924;28.194;2023-04-06T05:49:27;85467.58;;;20.34;40.01
40948;BME280;49382;-25.924;28.194;2023-04-06T05:51:53;85468.05;;;20.41;40.55
40948;BME280;49382;-25.924;28.194;2023-04-06T05:54:18;85468.25;;;19.75;39.61
40948;BME280;49382;-25.924;28.194;2023-04-06T05:56:44;85474.22;;;18.88;41.94
40948;BME280;49382;-25.924;28.194;2023-04-06T05:59:09;85477.54;;;19.65;41.81
40948;BME280;49382;-25.924;28.194;2023-04-06T06:01:34;85474.56;;;20.31;40.76
40948;BME280;49382;-25.924;28.194;2023-04-06T06:04:00;85478.35;;;20.13;40.41
40948;BME280;49382;-25.924;28.194;2023-04-06T06:06:24;85477.07;;;19.43;40.26
40948;BME280;49382;-25.924;28.194;2023-04-06T06:08:50;85479.84;;;20.30;39.98
40948;BME280;49382;-25.924;28.194;2023-04-06T06:11:16;85482.08;;;20.28;40.11
40948;BME280;49382;-25.924;28.194;2023-04-06T06:13:41;85482.35;;;20.93;40.53
40948;BME280;49382;-25.924;28.194;2023-04-06T06:16:07;85480.01;;;19.91;40.50
40948;BME280;49382;-25.924;28.194;2023-04-06T06:18:33;85482.12;;;19.73;40.27
40948;BME280;49382;-25.924;28.194;2023-04-06T06:20:59;85481.33;;;19.68;41.99
40948;BME280;49382;-25.924;28.194;2023-04-06T06:23:25;85486.50;;;18.93;44.25
40948;BME280;49382;-25.924;28.194;2023-04-06T06:25:50;85484.44;;;20.05;42.28
40948;BME280;49382;-25.924;28.194;2023-04-06T06:28:16;85483.44;;;20.15;41.24
40948;BME280;49382;-25.924;28.194;2023-04-06T06:30:42;85485.91;;;20.44;42.34
40948;BME280;49382;-25.924;28.194;2023-04-06T06:33:08;85487.91;;;21.10;41.99
40948;BME280;49382;-25.924;28.194;2023-04-06T06:35:33;85488.67;;;20.13;43.49
40948;BME280;49382;-25.924;28.194;2023-04-06T06:37:59;85493.40;;;19.08;44.90
40948;BME280;49382;-25.924;28.194;2023-04-06T06:40:25;85495.41;;;19.57;45.34
40948;BME280;49382;-25.924;28.194;2023-04-06T06:42:51;85492.52;;;21.98;40.10
40948;BME280;49382;-25.924;28.194;2023-04-06T06:45:17;85494.02;;;21.09;39.84
40948;BME280;49382;-25.924;28.194;2023-04-06T06:47:43;85494.66;;;21.14;40.07
40948;BME280;49382;-25.924;28.194;2023-04-06T06:50:09;85496.80;;;22.08;38.58
40948;BME280;49382;-25.924;28.194;2023-04-06T06:52:34;85496.45;;;21.40;40.73
40948;BME280;49382;-25.924;28.194;2023-04-06T06:55:00;85497.07;;;20.33;42.62
40948;BME280;49382;-25.924;28.194;2023-04-06T06:57:27;85496.94;;;21.18;42.47
40948;BME280;49382;-25.924;28.194;2023-04-06T06:59:52;85500.22;;;20.80;39.74
40948;BME280;49382;-25.924;28.194;2023-04-06T07:02:17;85502.13;;;21.27;39.48
40948;BME280;49382;-25.924;28.194;2023-04-06T07:04:43;85499.56;;;20.69;42.05
40948;BME280;49382;-25.924;28.194;2023-04-06T07:07:09;85505.85;;;20.85;42.53
40948;BME280;49382;-25.924;28.194;2023-04-06T07:09:35;85501.76;;;21.42;39.42
40948;BME280;49382;-25.924;28.194;2023-04-06T07:12:00;85500.93;;;21.48;40.05
40948;BME280;49382;-25.924;28.194;2023-04-06T07:14:26;85496.27;;;20.87;39.61
40948;BME280;49382;-25.924;28.194;2023-04-06T07:16:52;85498.70;;;22.12;39.07
40948;BME280;49382;-25.924;28.194;2023-04-06T07:19:18;85494.19;;;22.21;39.04
40948;BME280;49382;-25.924;28.194;2023-04-06T07:21:43;85496.70;;;23.50;36.13
40948;BME280;49382;-25.924;28.194;2023-04-06T07:24:08;85491.22;;;22.90;36.37
40948;BME280;49382;-25.924;28.194;2023-04-06T07:26:34;85494.90;;;23.99;35.74
40948;BME280;49382;-25.924;28.194;2023-04-06T07:29:00;85489.13;;;23.71;37.03
40948;BME280;49382;-25.924;28.194;2023-04-06T07:31:25;85488.87;;;23.16;39.05
40948;BME280;49382;-25.924;28.194;2023-04-06T07:33:51;85490.93;;;24.86;34.71
40948;BME280;49382;-25.924;28.194;2023-04-06T07:36:17;85489.69;;;24.42;35.74
40948;BME280;49382;-25.924;28.194;2023-04-06T07:38:42;85492.40;;;22.76;37.73
40948;BME280;49382;-25.924;28.194;2023-04-06T07:41:08;85489.53;;;22.98;35.49
40948;BME280;49382;-25.924;28.194;2023-04-06T07:43:34;85491.06;;;23.91;35.29
40948;BME280;49382;-25.924;28.194;2023-04-06T07:45:59;85489.13;;;24.94;34.75
40948;BME280;49382;-25.924;28.194;2023-04-06T07:48:25;85482.08;;;25.13;33.21
40948;BME280;49382;-25.924;28.194;2023-04-06T07:50:51;85482.36;;;25.16;34.17
40948;BME280;49382;-25.924;28.194;2023-04-06T07:53:16;85480.39;;;25.09;33.36
40948;BME280;49382;-25.924;28.194;2023-04-06T07:55:42;85476.42;;;25.04;31.18
40948;BME280;49382;-25.924;28.194;2023-04-06T07:58:08;85477.24;;;24.70;34.40
40948;BME280;49382;-25.924;28.194;2023-04-06T08:00:34;85471.06;;;23.34;33.92
40948;BME280;49382;-25.924;28.194;2023-04-06T08:02:59;85467.30;;;25.34;31.40
40948;BME280;49382;-25.924;28.194;2023-04-06T08:05:25;85470.09;;;25.71;31.80
40948;BME280;49382;-25.924;28.194;2023-04-06T08:07:51;85468.01;;;25.78;32.03
40948;BME280;49382;-25.924;28.194;2023-04-06T08:10:17;85467.62;;;25.77;32.01
40948;BME280;49382;-25.924;28.194;2023-04-06T08:12:43;85466.47;;;26.58;31.05
40948;BME280;49382;-25.924;28.194;2023-04-06T08:15:09;85464.12;;;23.70;33.93
40948;BME280;49382;-25.924;28.194;2023-04-06T08:17:34;85465.11;;;25.82;32.01
40948;BME280;49382;-25.924;28.194;2023-04-06T08:20:00;85461.88;;;25.23;30.05
40948;BME280;49382;-25.924;28.194;2023-04-06T08:22:25;85465.42;;;26.96;28.70
40948;BME280;49382;-25.924;28.194;2023-04-06T08:24:51;85463.39;;;26.09;28.12
40948;BME280;49382;-25.924;28.194;2023-04-06T08:27:17;85457.12;;;26.26;29.13
40948;BME280;49382;-25.924;28.194;2023-04-06T08:29:42;85461.32;;;25.70;29.60
40948;BME280;49382;-25.924;28.194;2023-04-06T08:32:08;85454.44;;;26.47;26.87
40948;BME280;49382;-25.924;28.194;2023-04-06T08:34:34;85453.13;;;26.50;27.15
40948;BME280;49382;-25.924;28.194;2023-04-06T08:37:00;85452.05;;;26.97;27.08
40948;BME280;49382;-25.924;28.194;2023-04-06T08:39:26;85449.41;;;25.78;29.68
40948;BME280;49382;-25.924;28.194;2023-04-06T08:41:52;85446.01;;;25.41;27.97
40948;BME280;49382;-25.924;28.194;2023-04-06T08:44:17;85443.94;;;27.14;27.73
40948;BME280;49382;-25.924;28.194;2023-04-06T08:46:43;85441.24;;;25.71;29.97
40948;BME280;49382;-25.924;28.194;2023-04-06T08:49:09;85440.91;;;26.19;31.10
40948;BME280;49382;-25.924;28.194;2023-04-06T08:51:36;85437.16;;;27.36;27.24
40948;BME280;49382;-25.924;28.194;2023-04-06T08:54:00;85437.57;;;26.93;27.87
40948;BME280;49382;-25.924;28.194;2023-04-06T08:56:27;85438.47;;;26.90;25.82
40948;BME280;49382;-25.924;28.194;2023-04-06T08:58:53;85429.08;;;25.83;28.68
40948;BME280;49382;-25.924;28.194;2023-04-06T09:01:20;85426.43;;;25.26;27.59
40948;BME280;49382;-25.924;28.194;2023-04-06T09:03:43;85420.04;;;26.65;27.72
40948;BME280;49382;-25.924;28.194;2023-04-06T09:06:09;85418.75;;;27.16;27.04
40948;BME280;49382;-25.924;28.194;2023-04-06T09:08:35;85418.97;;;27.38;26.78
40948;BME280;49382;-25.924;28.194;2023-04-06T09:11:01;85408.96;;;25.51;26.57
40948;BME280;49382;-25.924;28.194;2023-04-06T09:13:26;85407.49;;;26.95;27.86
40948;BME280;49382;-25.924;28.194;2023-04-06T09:16:00;85408.57;;;26.72;27.45
40948;BME280;49382;-25.924;28.194;2023-04-06T09:20:43;85401.33;;;27.21;26.35
40948;BME280;49382;-25.924;28.194;2023-04-06T09:23:17;85393.85;;;25.32;27.49
40948;BME280;49382;-25.924;28.194;2023-04-06T09:25:34;85395.83;;;27.17;26.24
40948;BME280;49382;-25.924;28.194;2023-04-06T09:28:01;85386.04;;;25.19;28.00
40948;BME280;49382;-25.924;28.194;2023-04-06T09:30:26;85381.89;;;24.20;28.15
40948;BME280;49382;-25.924;28.194;2023-04-06T09:32:53;85381.75;;;26.34;27.46
40948;BME280;49382;-25.924;28.194;2023-04-06T09:35:18;85376.07;;;25.91;26.33
40948;BME280;49382;-25.924;28.194;2023-04-06T09:37:43;85375.17;;;24.81;31.20
40948;BME280;49382;-25.924;28.194;2023-04-06T09:40:09;85369.30;;;25.12;28.75
40948;BME280;49382;-25.924;28.194;2023-04-06T09:42:35;85367.11;;;26.15;28.80
40948;BME280;49382;-25.924;28.194;2023-04-06T09:45:00;85364.18;;;26.97;28.12
40948;BME280;49382;-25.924;28.194;2023-04-06T09:47:26;85367.83;;;27.24;25.60
40948;BME280;49382;-25.924;28.194;2023-04-06T09:49:55;85354.86;;;27.04;25.94
40948;BME280;49382;-25.924;28.194;2023-04-06T09:52:18;85346.77;;;26.37;26.82
40948;BME280;49382;-25.924;28.194;2023-04-06T09:54:44;85346.36;;;27.43;27.85
40948;BME280;49382;-25.924;28.194;2023-04-06T09:57:15;85338.50;;;25.26;28.67
40948;BME280;49382;-25.924;28.194;2023-04-06T09:59:42;85333.69;;;26.28;27.68
40948;BME280;49382;-25.924;28.194;2023-04-06T10:02:01;85330.80;;;25.65;28.15
40948;BME280;49382;-25.924;28.194;2023-04-06T10:04:34;85331.38;;;27.47;26.04
40948;BME280;49382;-25.924;28.194;2023-04-06T10:06:52;85328.01;;;27.35;25.42
40948;BME280;49382;-25.924;28.194;2023-04-06T10:09:18;85323.19;;;28.46;24.52
40948;BME280;49382;-25.924;28.194;2023-04-06T10:11:43;85317.90;;;28.36;23.76
40948;BME280;49382;-25.924;28.194;2023-04-06T10:14:10;85313.79;;;27.08;25.10
40948;BME280;49382;-25.924;28.194;2023-04-06T10:16:35;85301.61;;;26.57;25.92
40948;BME280;49382;-25.924;28.194;2023-04-06T10:19:06;85299.20;;;26.67;29.19
40948;BME280;49382;-25.924;28.194;2023-04-06T10:21:27;85293.38;;;26.48;28.66
40948;BME280;49382;-25.924;28.194;2023-04-06T10:23:54;85285.72;;;25.49;26.64
40948;BME280;49382;-25.924;28.194;2023-04-06T10:26:20;85285.87;;;26.57;27.78
40948;BME280;49382;-25.924;28.194;2023-04-06T10:28:45;85286.96;;;26.48;28.77
40948;BME280;49382;-25.924;28.194;2023-04-06T10:31:09;85280.48;;;26.44;27.51
40948;BME280;49382;-25.924;28.194;2023-04-06T10:33:35;85275.09;;;27.19;24.94
40948;BME280;49382;-25.924;28.194;2023-04-06T10:38:34;85270.38;;;26.57;24.60
40948;BME280;49382;-25.924;28.194;2023-04-06T10:40:52;85268.05;;;27.12;24.92
40948;BME280;49382;-25.924;28.194;2023-04-06T10:43:20;85266.04;;;27.13;24.78
40948;BME280;49382;-25.924;28.194;2023-04-06T10:45:43;85264.47;;;27.34;25.69
40948;BME280;49382;-25.924;28.194;2023-04-06T10:48:14;85261.30;;;27.97;25.71
40948;BME280;49382;-25.924;28.194;2023-04-06T10:50:35;85254.70;;;26.80;25.40
40948;BME280;49382;-25.924;28.194;2023-04-06T10:53:02;85251.97;;;27.59;25.00
40948;BME280;49382;-25.924;28.194;2023-04-06T10:55:26;85245.40;;;26.45;25.26
40948;BME280;49382;-25.924;28.194;2023-04-06T10:57:52;85242.20;;;27.33;25.37
40948;BME280;49382;-25.924;28.194;2023-04-06T11:00:19;85241.73;;;27.36;25.76
40948;BME280;49382;-25.924;28.194;2023-04-06T11:02:43;85240.89;;;26.98;25.42
40948;BME280;49382;-25.924;28.194;2023-04-06T11:05:12;85237.40;;;27.33;23.70
40948;BME280;49382;-25.924;28.194;2023-04-06T11:07:35;85231.09;;;25.91;23.82
40948;BME280;49382;-25.924;28.194;2023-04-06T11:10:01;85231.56;;;27.78;22.72
40948;BME280;49382;-25.924;28.194;2023-04-06T11:12:27;85227.91;;;27.98;23.46
40948;BME280;49382;-25.924;28.194;2023-04-06T11:14:57;85226.48;;;27.82;24.10
40948;BME280;49382;-25.924;28.194;2023-04-06T11:17:18;85222.87;;;27.69;25.59
40948;BME280;49382;-25.924;28.194;2023-04-06T11:19:43;85219.66;;;27.30;24.59
40948;BME280;49382;-25.924;28.194;2023-04-06T11:22:09;85221.47;;;26.81;23.19
40948;BME280;49382;-25.924;28.194;2023-04-06T11:24:35;85214.30;;;27.69;22.08
40948;BME280;49382;-25.924;28.194;2023-04-06T11:27:01;85210.43;;;27.50;22.16
40948;BME280;49382;-25.924;28.194;2023-04-06T11:29:28;85204.41;;;27.31;22.37
40948;BME280;49382;-25.924;28.194;2023-04-06T11:31:53;85202.01;;;27.45;21.93
40948;BME280;49382;-25.924;28.194;2023-04-06T11:34:20;85202.24;;;26.32;23.77
40948;BME280;49382;-25.924;28.194;2023-04-06T11:36:45;85195.70;;;26.40;22.49
40948;BME280;49382;-25.924;28.194;2023-04-06T11:39:11;85195.11;;;27.30;22.99
40948;BME280;49382;-25.924;28.194;2023-04-06T11:41:35;85190.90;;;27.59;23.06
40948;BME280;49382;-25.924;28.194;2023-04-06T11:44:02;85176.76;;;27.59;24.57
40948;BME280;49382;-25.924;28.194;2023-04-06T11:46:26;85184.83;;;27.95;24.56
40948;BME280;49382;-25.924;28.194;2023-04-06T11:48:52;85182.09;;;27.92;22.56
40948;BME280;49382;-25.924;28.194;2023-04-06T11:51:23;85178.18;;;28.24;21.86
40948;BME280;49382;-25.924;28.194;2023-04-06T11:53:45;85182.00;;;27.03;22.20
40948;BME280;49382;-25.924;28.194;2023-04-06T11:56:09;85175.23;;;27.90;22.16
40948;BME280;49382;-25.924;28.194;2023-04-06T11:58:35;85171.91;;;27.70;22.37
40948;BME280;49382;-25.924;28.194;2023-04-06T12:01:04;85166.82;;;27.79;22.09
40948;BME280;49382;-25.924;28.194;2023-04-06T12:03:27;85163.41;;;27.65;22.71
40948;BME280;49382;-25.924;28.194;2023-04-06T12:05:52;85159.55;;;27.83;22.05
40948;BME280;49382;-25.924;28.194;2023-04-06T12:08:18;85153.61;;;27.09;21.77
40948;BME280;49382;-25.924;28.194;2023-04-06T12:10:44;85151.99;;;27.63;20.87
40948;BME280;49382;-25.924;28.194;2023-04-06T12:13:10;85148.72;;;27.24;21.91
40948;BME280;49382;-25.924;28.194;2023-04-06T12:15:35;85147.10;;;27.23;23.50
40948;BME280;49382;-25.924;28.194;2023-04-06T12:18:01;85142.43;;;26.05;24.35
40948;BME280;49382;-25.924;28.194;2023-04-06T12:20:27;85140.94;;;26.42;23.92
40948;BME280;49382;-25.924;28.194;2023-04-06T12:22:53;85141.36;;;27.11;23.14
40948;BME280;49382;-25.924;28.194;2023-04-06T12:25:19;85136.11;;;26.23;23.69
40948;BME280;49382;-25.924;28.194;2023-04-06T12:27:44;85130.73;;;25.69;24.73
40948;BME280;49382;-25.924;28.194;2023-04-06T12:30:11;85131.00;;;25.41;25.29
40948;BME280;49382;-25.924;28.194;2023-04-06T12:32:36;85130.23;;;25.27;25.56
40948;BME280;49382;-25.924;28.194;2023-04-06T12:35:02;85130.43;;;24.99;25.91